sensor_id;sensor_type;location;lat;lon;timestamp;pressure;altitude;pressure_sealevel;temperature;humidity
51496;BME280;37572;52.094;4.870;2023-07-20T00:01:34;101519.28;;;21.28;56.08
51496;BME280;37572;52.094;4.870;2023-07-20T00:03:59;101515.75;;;21.27;55.87
51496;BME280;37572;52.094;4.870;2023-07-20T00:06:25;101528.44;;;21.26;56.22
51496;BME280;37572;52.094;4.870;2023-07-20T00:08:52;101522.59;;;21.23;56.32
51496;BME280;37572;52.094;4.870;2023-07-20T00:11:18;101533.84;;;21.20;55.92
51496;BME280;37572;52.094;4.870;2023-07-20T00:13:43;101532.41;;;21.17;56.04
51496;BME280;37572;52.094;4.870;2023-07-20T00:16:11;101530.31;;;21.13;56.18
51496;BME280;37572;52.094;4.870;2023-07-20T00:18:37;101530.94;;;21.08;55.98
51496;BME280;37572;52.094;4.870;2023-07-20T00:21:02;101526.19;;;21.03;56.07
51496;BME280;37572;52.094;4.870;2023-07-20T00:23:28;101530.34;;;20.99;56.09
51496;BME280;37572;52.094;4.870;2023-07-20T00:25:53;101526.19;;;20.97;55.75
51496;BME280;37572;52.094;4.870;2023-07-20T00:28:19;101532.22;;;20.92;56.00
51496;BME280;37572;52.094;4.870;2023-07-20T00:30:44;101529.91;;;20.89;55.79
51496;BME280;37572;52.094;4.870;2023-07-20T00:33:10;101532.00;;;20.87;55.84
51496;BME280;37572;52.094;4.870;2023-07-20T00:35:36;101529.09;;;20.82;55.90
51496;BME280;37572;52.094;4.870;2023-07-20T00:38:03;101528.88;;;20.77;56.07
51496;BME280;37572;52.094;4.870;2023-07-20T00:40:28;101522.59;;;20.69;56.00
51496;BME280;37572;52.094;4.870;2023-07-20T00:42:53;101529.47;;;20.65;55.95
51496;BME280;37572;52.094;4.870;2023-07-20T00:45:19;101522.16;;;20.59;56.18
51496;BME280;37572;52.094;4.870;2023-07-20T00:47:44;101529.84;;;20.56;56.11
51496;BME280;37572;52.094;4.870;2023-07-20T00:50:09;101524.84;;;20.52;56.07
51496;BME280;37572;52.094;4.870;2023-07-20T00:52:37;101524.41;;;20.49;55.91
51496;BME280;37572;52.094;4.870;2023-07-20T00:55:04;101523.78;;;20.47;56.06
51496;BME280;37572;52.094;4.870;2023-07-20T00:57:30;101523.97;;;20.39;56.12
51496;BME280;37572;52.094;4.870;2023-07-20T00:59:55;101525.59;;;20.26;56.05
51496;BME280;37572;52.094;4.870;2023-07-20T01:02:21;101521.81;;;20.14;56.28
51496;BME280;37572;52.094;4.870;2023-07-20T01:04:46;101526.78;;;20.04;56.27
51496;BME280;37572;52.094;4.870;2023-07-20T01:07:25;101525.66;;;19.91;56.53
51496;BME280;37572;52.094;4.870;2023-07-20T01:09:58;101522.09;;;19.84;56.80
51496;BME280;37572;52.094;4.870;2023-07-20T01:12:35;101533.50;;;19.80;56.70
51496;BME280;37572;52.094;4.870;2023-07-20T01:15:02;101528.50;;;19.76;56.72
51496;BME280;37572;52.094;4.870;2023-07-20T01:17:27;101520.59;;;19.75;56.67
51496;BME280;37572;52.094;4.870;2023-07-20T01:19:53;101526.41;;;19.72;56.88
51496;BME280;37572;52.094;4.870;2023-07-20T01:28:09;101525.69;;;19.63;56.98
51496;BME280;37572;52.094;4.870;2023-07-20T01:33:35;101535.25;;;19.59;56.81
51496;BME280;37572;52.094;4.870;2023-07-20T01:36:01;101534.81;;;19.55;56.71
51496;BME280;37572;52.094;4.870;2023-07-20T01:38:28;101528.97;;;19.52;56.89
51496;BME280;37572;52.094;4.870;2023-07-20T01:40:54;101533.66;;;19.43;56.93
51496;BME280;37572;52.094;4.870;2023-07-20T01:43:20;101526.16;;;19.32;57.01
51496;BME280;37572;52.094;4.870;2023-07-20T01:45:46;101529.00;;;19.23;57.10
51496;BME280;37572;52.094;4.870;2023-07-20T01:48:11;101524.38;;;19.17;56.86
51496;BME280;37572;52.094;4.870;2023-07-20T01:50:37;101533.22;;;19.11;57.15
51496;BME280;37572;52.094;4.870;2023-07-20T01:53:02;101534.22;;;19.03;56.89
51496;BME280;37572;52.094;4.870;2023-07-20T01:55:27;101529.97;;;18.94;57.08
51496;BME280;37572;52.094;4.870;2023-07-20T01:57:55;101535.31;;;18.88;57.32
51496;BME280;37572;52.094;4.870;2023-07-20T02:00:20;101537.75;;;18.82;57.12
51496;BME280;37572;52.094;4.870;2023-07-20T02:02:49;101543.50;;;18.79;56.96
51496;BME280;37572;52.094;4.870;2023-07-20T02:05:15;101543.06;;;18.76;57.11
51496;BME280;37572;52.094;4.870;2023-07-20T02:07:40;101546.16;;;18.73;57.18
51496;BME280;37572;52.094;4.870;2023-07-20T02:10:06;101543.00;;;18.69;57.66
51496;BME280;37572;52.094;4.870;2023-07-20T02:12:31;101534.84;;;18.62;57.48
51496;BME280;37572;52.094;4.870;2023-07-20T02:14:56;101534.78;;;18.56;57.05
51496;BME280;37572;52.094;4.870;2023-07-20T02:17:22;101539.06;;;18.50;57.79
51496;BME280;37572;52.094;4.870;2023-07-20T02:19:52;101535.91;;;18.46;58.05
51496;BME280;37572;52.094;4.870;2023-07-20T02:22:17;101548.19;;;18.49;57.91
51496;BME280;37572;52.094;4.870;2023-07-20T02:24:42;101539.72;;;18.52;58.01
51496;BME280;37572;52.094;4.870;2023-07-20T02:27:07;101543.69;;;18.56;57.80
51496;BME280;37572;52.094;4.870;2023-07-20T02:29:33;101547.69;;;18.60;57.63
51496;BME280;37572;52.094;4.870;2023-07-20T02:31:59;101535.66;;;18.63;57.66
51496;BME280;37572;52.094;4.870;2023-07-20T02:34:24;101532.59;;;18.66;58.04
51496;BME280;37572;52.094;4.870;2023-07-20T02:36:49;101541.31;;;18.68;57.79
51496;BME280;37572;52.094;4.870;2023-07-20T02:39:14;101537.59;;;18.69;58.11
51496;BME280;37572;52.094;4.870;2023-07-20T02:41:41;101535.75;;;18.70;58.25
51496;BME280;37572;52.094;4.870;2023-07-20T02:44:06;101540.31;;;18.69;58.19
51496;BME280;37572;52.094;4.870;2023-07-20T02:46:31;101534.09;;;18.68;58.24
51496;BME280;37572;52.094;4.870;2023-07-20T02:48:57;101532.22;;;18.69;58.38
51496;BME280;37572;52.094;4.870;2023-07-20T02:51:22;101546.72;;;18.68;58.39
51496;BME280;37572;52.094;4.870;2023-07-20T02:53:47;101538.44;;;18.70;58.08
51496;BME280;37572;52.094;4.870;2023-07-20T02:56:13;101548.22;;;18.71;58.08
51496;BME280;37572;52.094;4.870;2023-07-20T02:58:41;101541.31;;;18.68;58.17
51496;BME280;37572;52.094;4.870;2023-07-20T03:01:09;101548.22;;;18.71;58.35
51496;BME280;37572;52.094;4.870;2023-07-20T03:03:36;101550.72;;;18.72;58.13
51496;BME280;37572;52.094;4.870;2023-07-20T03:06:04;101554.25;;;18.73;58.26
51496;BME280;37572;52.094;4.870;2023-07-20T03:08:29;101555.25;;;18.72;58.51
51496;BME280;37572;52.094;4.870;2023-07-20T03:10:55;101562.34;;;18.73;58.46
51496;BME280;37572;52.094;4.870;2023-07-20T03:13:20;101558.63;;;18.74;58.37
51496;BME280;37572;52.094;4.870;2023-07-20T03:15:45;101566.72;;;18.74;58.20
51496;BME280;37572;52.094;4.870;2023-07-20T03:18:11;101565.41;;;18.70;58.28
51496;BME280;37572;52.094;4.870;2023-07-20T03:20:36;101568.88;;;18.63;58.37
51496;BME280;37572;52.094;4.870;2023-07-20T03:23:02;101573.34;;;18.56;58.25
51496;BME280;37572;52.094;4.870;2023-07-20T03:25:27;101573.94;;;18.52;58.14
51496;BME280;37572;52.094;4.870;2023-07-20T03:27:52;101572.28;;;18.51;58.61
51496;BME280;37572;52.094;4.870;2023-07-20T03:30:18;101571.63;;;18.48;58.49
51496;BME280;37572;52.094;4.870;2023-07-20T03:32:43;101566.44;;;18.47;58.49
51496;BME280;37572;52.094;4.870;2023-07-20T03:35:08;101570.97;;;18.46;58.49
51496;BME280;37572;52.094;4.870;2023-07-20T03:37:34;101570.31;;;18.44;58.46
51496;BME280;37572;52.094;4.870;2023-07-20T03:40:02;101577.41;;;18.45;58.11
51496;BME280;37572;52.094;4.870;2023-07-20T03:42:27;101585.50;;;18.45;58.54
51496;BME280;37572;52.094;4.870;2023-07-20T03:44:53;101581.31;;;18.43;58.38
51496;BME280;37572;52.094;4.870;2023-07-20T03:47:18;101579.66;;;18.42;58.22
51496;BME280;37572;52.094;4.870;2023-07-20T03:49:43;101581.66;;;18.40;58.43
51496;BME280;37572;52.094;4.870;2023-07-20T03:52:09;101587.25;;;18.38;58.39
51496;BME280;37572;52.094;4.870;2023-07-20T03:54:34;101583.72;;;18.38;58.52
51496;BME280;37572;52.094;4.870;2023-07-20T03:56:59;101583.72;;;18.38;58.33
51496;BME280;37572;52.094;4.870;2023-07-20T03:59:25;101586.44;;;18.38;58.25
51496;BME280;37572;52.094;4.870;2023-07-20T04:01:51;101586.44;;;18.38;58.33
51496;BME280;37572;52.094;4.870;2023-07-20T04:04:16;101588.28;;;18.37;58.30
51496;BME280;37572;52.094;4.870;2023-07-20T04:06:42;101583.91;;;18.36;58.08
51496;BME280;37572;52.094;4.870;2023-07-20T04:09:11;101591.19;;;18.36;58.12
51496;BME280;37572;52.094;4.870;2023-07-20T04:11:36;101589.94;;;18.38;58.32
51496;BME280;37572;52.094;4.870;2023-07-20T04:14:02;101590.63;;;18.40;58.38
51496;BME280;37572;52.094;4.870;2023-07-20T04:16:27;101589.38;;;18.43;58.40
51496;BME280;37572;52.094;4.870;2023-07-20T04:18:55;101586.31;;;18.46;58.64
51496;BME280;37572;52.094;4.870;2023-07-20T04:21:21;101595.03;;;18.48;58.17
51496;BME280;37572;52.094;4.870;2023-07-20T04:23:47;101590.50;;;18.48;58.70
51496;BME280;37572;52.094;4.870;2023-07-20T04:26:12;101592.81;;;18.52;58.67
51496;BME280;37572;52.094;4.870;2023-07-20T04:28:38;101588.44;;;18.51;58.20
51496;BME280;37572;52.094;4.870;2023-07-20T04:31:15;101586.41;;;18.53;58.41
51496;BME280;37572;52.094;4.870;2023-07-20T04:33:40;101583.31;;;18.56;58.36
51496;BME280;37572;52.094;4.870;2023-07-20T04:36:06;101592.06;;;18.58;58.28
51496;BME280;37572;52.094;4.870;2023-07-20T04:38:32;101598.94;;;18.60;58.84
51496;BME280;37572;52.094;4.870;2023-07-20T04:40:58;101602.47;;;18.61;58.89
51496;BME280;37572;52.094;4.870;2023-07-20T04:43:23;101596.06;;;18.62;58.79
51496;BME280;37572;52.094;4.870;2023-07-20T04:45:49;101604.41;;;18.67;59.00
51496;BME280;37572;52.094;4.870;2023-07-20T04:48:16;101607.19;;;18.74;58.81
51496;BME280;37572;52.094;4.870;2023-07-20T04:50:43;101603.34;;;18.83;59.00
51496;BME280;37572;52.094;4.870;2023-07-20T04:53:10;101604.91;;;18.92;59.26
51496;BME280;37572;52.094;4.870;2023-07-20T04:55:36;101611.00;;;19.01;58.93
51496;BME280;37572;52.094;4.870;2023-07-20T04:58:02;101610.06;;;19.09;58.91
51496;BME280;37572;52.094;4.870;2023-07-20T05:00:29;101609.06;;;19.16;59.09
51496;BME280;37572;52.094;4.870;2023-07-20T05:02:54;101611.00;;;19.22;59.28
51496;BME280;37572;52.094;4.870;2023-07-20T05:05:20;101611.88;;;19.30;59.14
51496;BME280;37572;52.094;4.870;2023-07-20T05:07:45;101612.19;;;19.41;59.29
51496;BME280;37572;52.094;4.870;2023-07-20T05:10:11;101609.16;;;19.51;59.23
51496;BME280;37572;52.094;4.870;2023-07-20T05:12:36;101600.72;;;19.61;59.15
51496;BME280;37572;52.094;4.870;2023-07-20T05:15:02;101607.25;;;19.73;59.08
51496;BME280;37572;52.094;4.870;2023-07-20T05:17:28;101603.19;;;19.84;59.15
51496;BME280;37572;52.094;4.870;2023-07-20T05:19:54;101605.31;;;19.95;58.89
51496;BME280;37572;52.094;4.870;2023-07-20T05:22:19;101610.19;;;20.07;59.00
51496;BME280;37572;52.094;4.870;2023-07-20T05:24:45;101618.56;;;20.19;59.24
51496;BME280;37572;52.094;4.870;2023-07-20T05:27:10;101605.69;;;20.27;59.09
51496;BME280;37572;52.094;4.870;2023-07-20T05:29:35;101597.84;;;20.39;58.92
51496;BME280;37572;52.094;4.870;2023-07-20T05:32:01;101601.22;;;20.55;58.71
51496;BME280;37572;52.094;4.870;2023-07-20T05:34:26;101600.44;;;20.67;58.64
51496;BME280;37572;52.094;4.870;2023-07-20T05:36:51;101599.47;;;20.82;58.44
51496;BME280;37572;52.094;4.870;2023-07-20T05:39:17;101608.63;;;20.94;58.83
51496;BME280;37572;52.094;4.870;2023-07-20T05:41:43;101602.00;;;21.10;58.59
51496;BME280;37572;52.094;4.870;2023-07-20T05:44:08;101604.91;;;21.22;58.59
51496;BME280;37572;52.094;4.870;2023-07-20T05:46:33;101611.38;;;21.34;58.22
51496;BME280;37572;52.094;4.870;2023-07-20T05:48:59;101605.31;;;21.46;58.55
51496;BME280;37572;52.094;4.870;2023-07-20T05:51:24;101611.19;;;21.56;58.20
51496;BME280;37572;52.094;4.870;2023-07-20T05:53:49;101605.34;;;21.66;57.80
51496;BME280;37572;52.094;4.870;2023-07-20T05:56:15;101614.88;;;21.75;57.79
51496;BME280;37572;52.094;4.870;2023-07-20T05:58:40;101612.59;;;21.85;57.98
51496;BME280;37572;52.094;4.870;2023-07-20T06:01:05;101619.44;;;21.94;57.89
51496;BME280;37572;52.094;4.870;2023-07-20T06:03:32;101616.91;;;22.06;57.50
51496;BME280;37572;52.094;4.870;2023-07-20T06:06:01;101618.56;;;22.14;57.42
51496;BME280;37572;52.094;4.870;2023-07-20T06:08:30;101615.63;;;22.22;57.37
51496;BME280;37572;52.094;4.870;2023-07-20T06:10:56;101616.63;;;22.28;57.05
51496;BME280;37572;52.094;4.870;2023-07-20T06:13:22;101618.09;;;22.37;56.55
51496;BME280;37572;52.094;4.870;2023-07-20T06:15:47;101616.97;;;22.51;56.38
51496;BME280;37572;52.094;4.870;2023-07-20T06:18:13;101621.91;;;22.68;55.67
51496;BME280;37572;52.094;4.870;2023-07-20T06:20:38;101620.56;;;22.84;55.63
51496;BME280;37572;52.094;4.870;2023-07-20T06:23:04;101627.34;;;23.00;54.77
51496;BME280;37572;52.094;4.870;2023-07-20T06:25:29;101624.75;;;23.18;55.03
51496;BME280;37572;52.094;4.870;2023-07-20T06:27:55;101621.66;;;23.40;54.15
51496;BME280;37572;52.094;4.870;2023-07-20T06:30:21;101618.13;;;23.58;53.94
51496;BME280;37572;52.094;4.870;2023-07-20T06:32:46;101619.00;;;23.77;52.84
51496;BME280;37572;52.094;4.870;2023-07-20T06:35:11;101625.31;;;23.96;52.74
51496;BME280;37572;52.094;4.870;2023-07-20T06:37:37;101634.09;;;24.16;51.80
51496;BME280;37572;52.094;4.870;2023-07-20T06:40:03;101632.19;;;24.35;51.28
51496;BME280;37572;52.094;4.870;2023-07-20T06:42:29;101632.78;;;24.56;50.99
51496;BME280;37572;52.094;4.870;2023-07-20T06:44:54;101634.19;;;24.77;50.11
51496;BME280;37572;52.094;4.870;2023-07-20T06:47:20;101634.94;;;24.96;49.23
51496;BME280;37572;52.094;4.870;2023-07-20T06:49:45;101635.72;;;25.15;48.57
51496;BME280;37572;52.094;4.870;2023-07-20T06:52:10;101637.69;;;25.38;48.17
51496;BME280;37572;52.094;4.870;2023-07-20T06:54:35;101633.06;;;25.62;47.49
51496;BME280;37572;52.094;4.870;2023-07-20T06:57:01;101642.78;;;25.82;47.53
51496;BME280;37572;52.094;4.870;2023-07-20T06:59:26;101639.56;;;26.09;46.62
51496;BME280;37572;52.094;4.870;2023-07-20T07:01:51;101637.38;;;26.34;45.79
51496;BME280;37572;52.094;4.870;2023-07-20T07:04:17;101642.50;;;26.59;45.07
51496;BME280;37572;52.094;4.870;2023-07-20T07:06:42;101634.50;;;26.82;44.17
51496;BME280;37572;52.094;4.870;2023-07-20T07:09:08;101636.50;;;27.03;43.36
51496;BME280;37572;52.094;4.870;2023-07-20T07:11:33;101637.34;;;27.21;43.08
51496;BME280;37572;52.094;4.870;2023-07-20T07:13:59;101639.03;;;27.39;42.69
51496;BME280;37572;52.094;4.870;2023-07-20T07:16:24;101640.69;;;27.57;42.16
51496;BME280;37572;52.094;4.870;2023-07-20T07:18:50;101643.81;;;27.65;41.27
51496;BME280;37572;52.094;4.870;2023-07-20T07:21:15;101642.09;;;27.59;41.56
51496;BME280;37572;52.094;4.870;2023-07-20T07:23:41;101636.97;;;27.63;41.20
51496;BME280;37572;52.094;4.870;2023-07-20T07:26:06;101638.91;;;27.67;41.49
51496;BME280;37572;52.094;4.870;2023-07-20T07:28:32;101646.78;;;27.81;40.91
51496;BME280;37572;52.094;4.870;2023-07-20T07:30:57;101644.31;;;27.96;40.23
51496;BME280;37572;52.094;4.870;2023-07-20T07:33:23;101647.09;;;28.01;39.02
51496;BME280;37572;52.094;4.870;2023-07-20T07:35:50;101651.91;;;27.94;39.09
51496;BME280;37572;52.094;4.870;2023-07-20T07:38:16;101644.47;;;27.90;39.87
51496;BME280;37572;52.094;4.870;2023-07-20T07:40:41;101650.28;;;27.93;40.24
51496;BME280;37572;52.094;4.870;2023-07-20T07:43:08;101654.03;;;28.09;40.69
51496;BME280;37572;52.094;4.870;2023-07-20T07:45:35;101651.31;;;28.31;40.47
51496;BME280;37572;52.094;4.870;2023-07-20T07:48:01;101643.84;;;28.49;39.92
51496;BME280;37572;52.094;4.870;2023-07-20T07:50:27;101653.72;;;28.50;38.74
51496;BME280;37572;52.094;4.870;2023-07-20T07:52:53;101655.88;;;28.26;38.48
51496;BME280;37572;52.094;4.870;2023-07-20T07:55:19;101653.53;;;28.12;38.95
51496;BME280;37572;52.094;4.870;2023-07-20T07:57:44;101651.69;;;28.18;39.40
51496;BME280;37572;52.094;4.870;2023-07-20T08:00:10;101656.00;;;28.36;39.84
51496;BME280;37572;52.094;4.870;2023-07-20T08:02:40;101655.56;;;28.44;39.57
51496;BME280;37572;52.094;4.870;2023-07-20T08:05:05;101655.34;;;28.51;39.07
51496;BME280;37572;52.094;4.870;2023-07-20T08:07:31;101652.25;;;28.42;39.05
51496;BME280;37572;52.094;4.870;2023-07-20T08:09:56;101652.28;;;28.20;39.02
51496;BME280;37572;52.094;4.870;2023-07-20T08:12:21;101651.09;;;27.94;39.78
51496;BME280;37572;52.094;4.870;2023-07-20T08:14:47;101645.13;;;27.80;39.92
51496;BME280;37572;52.094;4.870;2023-07-20T08:17:13;101648.69;;;27.80;39.58
51496;BME280;37572;52.094;4.870;2023-07-20T08:19:39;101641.53;;;27.79;39.01
51496;BME280;37572;52.094;4.870;2023-07-20T08:22:07;101651.19;;;27.82;39.64
51496;BME280;37572;52.094;4.870;2023-07-20T08:24:32;101654.56;;;27.89;39.29
51496;BME280;37572;52.094;4.870;2023-07-20T08:26:58;101658.38;;;27.88;39.67
51496;BME280;37572;52.094;4.870;2023-07-20T08:29:24;101647.38;;;27.83;39.35
51496;BME280;37572;52.094;4.870;2023-07-20T08:31:49;101655.34;;;27.67;38.89
51496;BME280;37572;52.094;4.870;2023-07-20T08:34:14;101656.94;;;27.46;38.92
51496;BME280;37572;52.094;4.870;2023-07-20T08:36:40;101661.22;;;27.25;39.35
51496;BME280;37572;52.094;4.870;2023-07-20T08:39:05;101658.56;;;27.13;39.68
51496;BME280;37572;52.094;4.870;2023-07-20T08:41:30;101663.00;;;27.03;39.39
51496;BME280;37572;52.094;4.870;2023-07-20T08:43:56;101659.81;;;26.77;38.99
51496;BME280;37572;52.094;4.870;2023-07-20T08:46:23;101655.38;;;26.47;39.03
51496;BME280;37572;52.094;4.870;2023-07-20T08:48:50;101656.50;;;26.22;39.65
51496;BME280;37572;52.094;4.870;2023-07-20T08:51:17;101656.06;;;26.02;40.41
51496;BME280;37572;52.094;4.870;2023-07-20T08:53:45;101658.31;;;25.93;41.14
51496;BME280;37572;52.094;4.870;2023-07-20T08:56:11;101651.69;;;26.01;40.98
51496;BME280;37572;52.094;4.870;2023-07-20T08:58:39;101645.63;;;26.11;40.65
51496;BME280;37572;52.094;4.870;2023-07-20T09:01:06;101662.06;;;26.28;41.06
51496;BME280;37572;52.094;4.870;2023-07-20T09:03:31;101660.00;;;26.47;40.65
51496;BME280;37572;52.094;4.870;2023-07-20T09:05:58;101648.09;;;26.53;40.70
51496;BME280;37572;52.094;4.870;2023-07-20T09:08:23;101654.31;;;26.48;40.17
51496;BME280;37572;52.094;4.870;2023-07-20T09:10:48;101651.47;;;26.43;40.69
51496;BME280;37572;52.094;4.870;2023-07-20T09:13:15;101653.97;;;26.45;40.80
51496;BME280;37572;52.094;4.870;2023-07-20T09:15:46;101648.63;;;26.50;40.85
51496;BME280;37572;52.094;4.870;2023-07-20T09:18:12;101654.06;;;26.50;41.08
51496;BME280;37572;52.094;4.870;2023-07-20T09:20:48;101662.13;;;26.56;40.99
51496;BME280;37572;52.094;4.870;2023-07-20T09:23:13;101660.31;;;26.62;40.86
51496;BME280;37572;52.094;4.870;2023-07-20T09:25:40;101656.31;;;26.65;40.72
51496;BME280;37572;52.094;4.870;2023-07-20T09:28:06;101654.16;;;26.67;40.10
51496;BME280;37572;52.094;4.870;2023-07-20T09:30:31;101649.59;;;26.72;40.29
51496;BME280;37572;52.094;4.870;2023-07-20T09:32:56;101647.06;;;26.83;39.56
51496;BME280;37572;52.094;4.870;2023-07-20T09:35:22;101652.59;;;27.00;39.84
51496;BME280;37572;52.094;4.870;2023-07-20T09:40:20;101651.41;;;27.41;40.78
51496;BME280;37572;52.094;4.870;2023-07-20T09:42:46;101645.59;;;27.55;39.34
51496;BME280;37572;52.094;4.870;2023-07-20T09:45:12;101642.00;;;27.54;38.76
51496;BME280;37572;52.094;4.870;2023-07-20T09:47:38;101640.00;;;27.49;39.23
51496;BME280;37572;52.094;4.870;2023-07-20T09:50:05;101643.75;;;27.43;38.95
51496;BME280;37572;52.094;4.870;2023-07-20T09:52:37;101646.00;;;27.46;39.16
51496;BME280;37572;52.094;4.870;2023-07-20T09:55:03;101636.53;;;27.54;39.39
51496;BME280;37572;52.094;4.870;2023-07-20T09:57:29;101647.63;;;27.64;39.57
51496;BME280;37572;52.094;4.870;2023-07-20T09:59:54;101641.28;;;27.81;40.01
51496;BME280;37572;52.094;4.870;2023-07-20T10:02:25;101644.81;;;27.93;39.46
51496;BME280;37572;52.094;4.870;2023-07-20T10:04:53;101638.00;;;27.79;37.96
51496;BME280;37572;52.094;4.870;2023-07-20T10:07:19;101639.09;;;27.61;38.45
51496;BME280;37572;52.094;4.870;2023-07-20T10:09:48;101640.88;;;27.50;38.53
51496;BME280;37572;52.094;4.870;2023-07-20T10:12:15;101642.41;;;27.46;39.08
51496;BME280;37572;52.094;4.870;2023-07-20T10:14:44;101643.75;;;27.43;39.16
51496;BME280;37572;52.094;4.870;2023-07-20T10:17:16;101641.03;;;27.43;38.77
51496;BME280;37572;52.094;4.870;2023-07-20T10:19:43;101639.03;;;27.39;39.14
51496;BME280;37572;52.094;4.870;2023-07-20T10:22:26;101633.25;;;27.35;37.11
51496;BME280;37572;52.094;4.870;2023-07-20T10:24:52;101630.44;;;27.30;37.04
51496;BME280;37572;52.094;4.870;2023-07-20T10:27:20;101630.06;;;27.26;37.10
51496;BME280;37572;52.094;4.870;2023-07-20T10:29:46;101629.47;;;27.24;36.94
51496;BME280;37572;52.094;4.870;2023-07-20T10:32:12;101633.88;;;27.25;37.64
51496;BME280;37572;52.094;4.870;2023-07-20T10:34:38;101639.44;;;27.30;37.92
51496;BME280;37572;52.094;4.870;2023-07-20T10:37:04;101631.56;;;27.34;37.23
51496;BME280;37572;52.094;4.870;2023-07-20T10:39:33;101623.63;;;27.32;37.01
51496;BME280;37572;52.094;4.870;2023-07-20T10:42:02;101628.84;;;27.34;37.27
51496;BME280;37572;52.094;4.870;2023-07-20T10:44:28;101628.19;;;27.44;37.45
51496;BME280;37572;52.094;4.870;2023-07-20T10:47:08;101623.44;;;27.56;38.42
51496;BME280;37572;52.094;4.870;2023-07-20T10:49:34;101628.91;;;27.73;38.43
51496;BME280;37572;52.094;4.870;2023-07-20T10:52:04;101622.06;;;27.93;38.09
51496;BME280;37572;52.094;4.870;2023-07-20T10:57:22;101614.19;;;27.96;36.26
51496;BME280;37572;52.094;4.870;2023-07-20T10:59:47;101618.91;;;27.84;36.81
51496;BME280;37572;52.094;4.870;2023-07-20T11:02:13;101616.09;;;27.79;36.78
51496;BME280;37572;52.094;4.870;2023-07-20T11:04:42;101614.13;;;27.74;36.91
51496;BME280;37572;52.094;4.870;2023-07-20T11:07:08;101620.38;;;27.69;37.54
51496;BME280;37572;52.094;4.870;2023-07-20T11:09:35;101617.88;;;27.68;37.98
51496;BME280;37572;52.094;4.870;2023-07-20T11:12:11;101620.78;;;27.61;36.70
51496;BME280;37572;52.094;4.870;2023-07-20T11:14:56;101618.31;;;27.43;36.23
51496;BME280;37572;52.094;4.870;2023-07-20T11:17:31;101621.03;;;27.26;36.74
51496;BME280;37572;52.094;4.870;2023-07-20T11:20:00;101616.56;;;27.20;37.49
51496;BME280;37572;52.094;4.870;2023-07-20T11:22:27;101613.47;;;27.16;37.34
51496;BME280;37572;52.094;4.870;2023-07-20T11:24:55;101612.09;;;27.13;37.53
51496;BME280;37572;52.094;4.870;2023-07-20T11:27:20;101612.16;;;27.19;37.62
51496;BME280;37572;52.094;4.870;2023-07-20T11:29:48;101605.59;;;27.31;38.13
51496;BME280;37572;52.094;4.870;2023-07-20T11:32:20;101596.84;;;27.52;38.34
51496;BME280;37572;52.094;4.870;2023-07-20T11:34:47;101600.31;;;27.64;37.81
51496;BME280;37572;52.094;4.870;2023-07-20T11:37:12;101598.81;;;27.56;37.10
51496;BME280;37572;52.094;4.870;2023-07-20T11:39:38;101593.69;;;27.43;36.96
51496;BME280;37572;52.094;4.870;2023-07-20T11:42:05;101593.38;;;27.39;37.37
51496;BME280;37572;52.094;4.870;2023-07-20T11:44:30;101594.22;;;27.40;35.99
51496;BME280;37572;52.094;4.870;2023-07-20T11:47:06;101587.50;;;27.30;36.42
51496;BME280;37572;52.094;4.870;2023-07-20T11:49:36;101584.50;;;27.15;36.93
51496;BME280;37572;52.094;4.870;2023-07-20T11:52:03;101592.78;;;27.03;36.88
51496;BME280;37572;52.094;4.870;2023-07-20T11:54:29;101595.69;;;26.97;37.76
51496;BME280;37572;52.094;4.870;2023-07-20T11:56:56;101594.59;;;26.98;37.03
51496;BME280;37572;52.094;4.870;2023-07-20T11:59:21;101592.09;;;26.96;37.28
51496;BME280;37572;52.094;4.870;2023-07-20T12:01:47;101588.56;;;26.95;37.31
51496;BME280;37572;52.094;4.870;2023-07-20T12:04:12;101590.56;;;27.00;36.62
51496;BME280;37572;52.094;4.870;2023-07-20T12:06:38;101588.63;;;27.18;38.02
51496;BME280;37572;52.094;4.870;2023-07-20T12:09:03;101577.81;;;27.40;38.17
51496;BME280;37572;52.094;4.870;2023-07-20T12:11:37;101583.16;;;27.68;38.50
51496;BME280;37572;52.094;4.870;2023-07-20T12:14:04;101581.25;;;27.91;38.51
51496;BME280;37572;52.094;4.870;2023-07-20T12:16:31;101574.91;;;28.08;38.50
51496;BME280;37572;52.094;4.870;2023-07-20T12:19:05;101573.19;;;28.23;38.96
51496;BME280;37572;52.094;4.870;2023-07-20T12:21:31;101570.31;;;28.35;38.52
51496;BME280;37572;52.094;4.870;2023-07-20T12:23:57;101583.06;;;28.52;38.78
51496;BME280;37572;52.094;4.870;2023-07-20T12:26:24;101583.47;;;28.60;37.63
51496;BME280;37572;52.094;4.870;2023-07-20T12:28:50;101577.69;;;28.57;37.61
51496;BME280;37572;52.094;4.870;2023-07-20T12:31:16;101583.06;;;28.52;37.57
51496;BME280;37572;52.094;4.870;2023-07-20T12:33:41;101574.25;;;28.45;38.00
51496;BME280;37572;52.094;4.870;2023-07-20T12:36:08;101576.97;;;28.45;37.44
51496;BME280;37572;52.094;4.870;2023-07-20T12:38:33;101570.41;;;28.46;38.04
51496;BME280;37572;52.094;4.870;2023-07-20T12:41:01;101576.97;;;28.45;37.88
51496;BME280;37572;52.094;4.870;2023-07-20T12:43:27;101572.84;;;28.42;36.82
51496;BME280;37572;52.094;4.870;2023-07-20T12:45:52;101570.31;;;28.35;35.18
51496;BME280;37572;52.094;4.870;2023-07-20T12:48:18;101567.19;;;28.27;35.39
51496;BME280;37572;52.094;4.870;2023-07-20T12:50:43;101569.69;;;28.06;35.64
51496;BME280;37572;52.094;4.870;2023-07-20T12:53:08;101575.94;;;27.84;35.33
51496;BME280;37572;52.094;4.870;2023-07-20T12:55:34;101566.47;;;27.70;35.60
51496;BME280;37572;52.094;4.870;2023-07-20T12:57:59;101566.59;;;27.58;36.12
51496;BME280;37572;52.094;4.870;2023-07-20T13:00:25;101560.38;;;27.63;36.55